createdAt,value
2018-05-03T00:01:00.947Z,100864.83
2018-05-03T00:03:29.745Z,100868.47
2018-05-03T00:05:58.418Z,100864.62
2018-05-03T00:08:27.010Z,100862.53
2018-05-03T00:10:56.194Z,100863.74
2018-05-03T00:13:24.860Z,100864.16
2018-05-03T00:15:53.898Z,100861.44
2018-05-03T00:18:22.234Z,100858.45
2018-05-03T00:20:50.444Z,100854.06
2018-05-03T00:23:19.526Z,100850.10
2018-05-03T00:25:48.215Z,100847.63
2018-05-03T00:28:16.490Z,100848.18
2018-05-03T00:30:44.871Z,100842.71
2018-05-03T00:33:13.278Z,100847.69
2018-05-03T00:35:42.038Z,100853.05
2018-05-03T00:38:10.320Z,100850.58
2018-05-03T00:40:40.043Z,100851.76
2018-05-03T00:43:08.403Z,100853.73
2018-05-03T00:45:37.496Z,100858.28
2018-05-03T00:48:05.994Z,100858.56
2018-05-03T00:50:34.260Z,100862.83
2018-05-03T00:53:02.514Z,100858.98
2018-05-03T00:55:32.444Z,100850.73
2018-05-03T00:58:00.830Z,100856.17
2018-05-03T01:00:29.107Z,100849.28
2018-05-03T01:02:57.706Z,100848.53
2018-05-03T01:05:26.559Z,100844.62
2018-05-03T01:07:55.598Z,100846.45
2018-05-03T01:10:23.987Z,100845.69
2018-05-03T01:12:52.268Z,100846.55
2018-05-03T01:15:20.606Z,100854.41
2018-05-03T01:17:48.878Z,100853.74
2018-05-03T01:20:17.397Z,100849.38
2018-05-03T01:22:45.979Z,100851.55
2018-05-03T01:25:14.986Z,100851.86
2018-05-03T01:27:43.363Z,100849.16
2018-05-03T01:30:11.738Z,100846.46
2018-05-03T01:32:40.026Z,100843.59
2018-05-03T01:35:26.206Z,100843.23
2018-05-03T01:37:54.539Z,100851.17
2018-05-03T01:40:23.579Z,100851.30
2018-05-03T01:42:52.681Z,100848.41
2018-05-03T01:45:21.442Z,100837.66
2018-05-03T01:47:51.048Z,100840.08
2018-05-03T01:50:19.366Z,100834.75
2018-05-03T01:52:48.450Z,100841.42
2018-05-03T01:55:16.848Z,100840.98
2018-05-03T01:57:45.956Z,100853.43
2018-05-03T02:00:14.222Z,100853.06
2018-05-03T02:02:42.531Z,100862.61
2018-05-03T02:05:10.796Z,100858.83
2018-05-03T02:07:39.903Z,100862.59
2018-05-03T02:10:08.196Z,100867.08
2018-05-03T02:12:37.282Z,100862.91
2018-05-03T02:15:06.430Z,100865.75
2018-05-03T02:17:34.711Z,100864.45
2018-05-03T02:20:03.023Z,100872.31
2018-05-03T02:22:31.594Z,100865.21
2018-05-03T02:25:00.631Z,100870.08
2018-05-03T02:27:29.687Z,100869.70
2018-05-03T02:29:59.605Z,100868.37
2018-05-03T02:32:27.871Z,100869.17
2018-05-03T02:34:56.154Z,100865.42
2018-05-03T02:37:24.523Z,100867.45
2018-05-03T02:39:53.515Z,100865.78
2018-05-03T02:42:22.658Z,100871.89
2018-05-03T02:44:52.006Z,100871.06
2018-05-03T02:47:20.287Z,100876.55
2018-05-03T02:49:49.932Z,100875.98
2018-05-03T02:52:18.279Z,100879.12
2018-05-03T02:54:46.562Z,100882.13
2018-05-03T02:57:32.740Z,100880.02
2018-05-03T03:00:24.583Z,100892.35
2018-05-03T03:06:39.186Z,100883.54
2018-05-03T03:09:30.886Z,100890.50
2018-05-03T03:15:43.014Z,100896.15
2018-05-03T03:18:34.835Z,100903.66
2018-05-03T03:21:27.078Z,100906.61
2018-05-03T03:24:18.840Z,100919.84
2018-05-03T03:30:36.656Z,100919.14
2018-05-03T03:33:22.935Z,100919.75
2018-05-03T03:36:10.838Z,100923.19
2018-05-03T03:41:52.835Z,100934.41
2018-05-03T03:44:39.231Z,100936.02
2018-05-03T03:47:08.457Z,100941.47
2018-05-03T03:49:37.026Z,100943.38
2018-05-03T03:52:05.301Z,100947.21
2018-05-03T03:54:33.587Z,100945.56
2018-05-03T03:57:01.879Z,100941.16
2018-05-03T03:59:30.948Z,100943.72
2018-05-03T04:01:59.720Z,100945.61
2018-05-03T04:04:29.252Z,100956.42
2018-05-03T04:06:58.454Z,100958.57
2018-05-03T04:09:27.134Z,100964.16
2018-05-03T04:11:55.535Z,100960.53
2018-05-03T04:14:23.890Z,100960.27
2018-05-03T04:16:53.073Z,100959.05
2018-05-03T04:19:39.399Z,100962.91
2018-05-03T04:22:25.709Z,100970.52
2018-05-03T04:25:11.907Z,100966.00
2018-05-03T04:27:41.604Z,100968.59
2018-05-03T04:30:10.712Z,100972.77
2018-05-03T04:32:39.572Z,100968.81
2018-05-03T04:35:07.885Z,100977.80
2018-05-03T04:37:36.178Z,100975.41
2018-05-03T04:40:04.899Z,100983.94
2018-05-03T04:42:34.763Z,100986.05
2018-05-03T04:45:03.571Z,100991.25
2018-05-03T04:47:31.856Z,101001.32
2018-05-03T04:50:00.151Z,101003.57
2018-05-03T04:52:30.043Z,101002.86
2018-05-03T04:54:59.405Z,101005.88
2018-05-03T04:57:27.722Z,101008.81
2018-05-03T04:59:57.666Z,101015.65
2018-05-03T05:02:26.735Z,101018.51
2018-05-03T05:04:55.399Z,101025.62
2018-05-03T05:07:23.702Z,101030.25
2018-05-03T05:09:52.527Z,101037.29
2018-05-03T05:12:21.658Z,101040.98
2018-05-03T05:14:50.218Z,101041.33
2018-05-03T05:17:18.822Z,101041.41
2018-05-03T05:19:47.210Z,101047.94
2018-05-03T05:22:16.222Z,101048.72
2018-05-03T05:24:45.360Z,101060.42
2018-05-03T05:27:14.758Z,101061.38
2018-05-03T05:29:44.481Z,101067.75
2018-05-03T05:32:14.362Z,101074.24
2018-05-03T05:34:43.263Z,101075.11
2018-05-03T05:37:11.586Z,101081.44
2018-05-03T05:39:40.221Z,101092.30
2018-05-03T05:42:08.487Z,101091.80
2018-05-03T05:44:36.769Z,101089.25
2018-05-03T05:47:05.416Z,101090.20
2018-05-03T05:49:33.827Z,101094.66
2018-05-03T05:52:03.023Z,101101.28
2018-05-03T05:54:31.410Z,101107.59
2018-05-03T05:56:59.734Z,101106.63
2018-05-03T05:59:28.793Z,101107.50
2018-05-03T06:01:57.603Z,101117.59
2018-05-03T06:04:27.147Z,101105.58
2018-05-03T06:06:55.534Z,101105.20
2018-05-03T06:09:24.322Z,101103.41
2018-05-03T06:11:53.956Z,101113.33
2018-05-03T06:14:22.265Z,101115.82
2018-05-03T06:16:51.322Z,101131.20
2018-05-03T06:19:19.810Z,101127.88
2018-05-03T06:21:49.466Z,101131.51
2018-05-03T06:24:18.514Z,101145.20
2018-05-03T06:26:47.195Z,101151.99
2018-05-03T06:29:15.461Z,101155.08
2018-05-03T06:31:44.493Z,101158.84
2018-05-03T06:34:13.357Z,101158.92
2018-05-03T06:36:42.055Z,101157.59
2018-05-03T06:39:10.322Z,101167.94
2018-05-03T06:41:39.561Z,101174.19
2018-05-03T06:44:08.080Z,101180.28
2018-05-03T06:46:36.355Z,101182.52
2018-05-03T06:49:04.652Z,101183.30
2018-05-03T06:51:34.554Z,101189.69
2018-05-03T06:54:03.277Z,101194.09
2018-05-03T06:56:31.593Z,101191.58
2018-05-03T06:59:00.646Z,101189.03
2018-05-03T07:01:28.926Z,101202.86
2018-05-03T07:03:57.473Z,101202.87
2018-05-03T07:06:26.615Z,101204.69
2018-05-03T07:08:55.518Z,101214.05
2018-05-03T07:11:24.478Z,101217.87
2018-05-03T07:13:52.760Z,101219.52
2018-05-03T07:16:21.447Z,101227.69
2018-05-03T07:18:50.145Z,101231.94
2018-05-03T07:21:18.413Z,101242.75
2018-05-03T07:23:46.774Z,101244.46
2018-05-03T07:26:15.886Z,101245.05
2018-05-03T07:28:44.181Z,101256.42
2018-05-03T07:31:12.846Z,101256.55
2018-05-03T07:33:43.246Z,101258.45
2018-05-03T07:36:11.531Z,101265.41
2018-05-03T07:38:41.202Z,101273.67
2018-05-03T07:41:09.560Z,101278.59
2018-05-03T07:43:38.393Z,101285.44
2018-05-03T07:46:14.699Z,101282.91
2018-05-03T07:48:42.986Z,101291.48
2018-05-03T07:51:11.255Z,101290.27
2018-05-03T07:53:40.298Z,101295.36
2018-05-03T07:56:08.580Z,101303.36
2018-05-03T07:58:37.864Z,101314.25
2018-05-03T08:01:07.524Z,101322.09
2018-05-03T08:03:35.794Z,101322.30
2018-05-03T08:06:04.067Z,101331.58
2018-05-03T08:08:33.298Z,101318.55
2018-05-03T08:11:01.922Z,101324.70
2018-05-03T08:13:31.374Z,101335.27
2018-05-03T08:16:01.753Z,101337.89
2018-05-03T08:18:30.411Z,101345.77
2018-05-03T08:20:59.794Z,101348.70
2018-05-03T08:23:29.151Z,101361.34
2018-05-03T08:25:57.531Z,101359.50
2018-05-03T08:28:26.678Z,101365.95
2018-05-03T08:30:55.846Z,101382.20
2018-05-03T08:33:24.887Z,101379.81
2018-05-03T08:35:54.221Z,101384.04
2018-05-03T08:38:23.210Z,101376.36
2018-05-03T08:40:52.220Z,101377.22
2018-05-03T08:43:22.483Z,101398.81
2018-05-03T08:45:50.762Z,101391.97
2018-05-03T08:48:19.671Z,101392.99
2018-05-03T08:50:47.957Z,101388.66
2018-05-03T08:53:17.490Z,101386.72
2018-05-03T08:55:47.143Z,101396.91
2018-05-03T08:58:15.770Z,101395.14
2018-05-03T09:00:44.091Z,101405.67
2018-05-03T09:03:13.222Z,101406.73
2018-05-03T09:05:42.368Z,101405.92
2018-05-03T09:08:12.958Z,101411.28
2018-05-03T09:10:42.510Z,101415.38
2018-05-03T09:13:13.419Z,101413.80
2018-05-03T09:15:42.339Z,101418.98
2018-05-03T09:18:13.075Z,101417.70
2018-05-03T09:20:42.453Z,101430.94
2018-05-03T09:23:11.535Z,101427.23
2018-05-03T09:25:41.563Z,101421.97
2018-05-03T09:28:10.631Z,101423.35
2018-05-03T09:30:38.947Z,101437.17
2018-05-03T09:33:07.219Z,101426.64
2018-05-03T09:35:36.103Z,101439.63
2018-05-03T09:38:04.571Z,101437.53
2018-05-03T09:40:33.471Z,101447.22
2018-05-03T09:43:03.129Z,101455.86
2018-05-03T09:45:32.179Z,101448.32
2018-05-03T09:48:01.472Z,101460.13
2018-05-03T09:50:29.858Z,101450.92
2018-05-03T09:52:58.127Z,101451.06
2018-05-03T09:55:26.488Z,101449.44
2018-05-03T09:57:55.914Z,101457.84
2018-05-03T10:00:24.605Z,101462.49
2018-05-03T10:02:52.979Z,101463.02
2018-05-03T10:05:21.990Z,101458.43
2018-05-03T10:07:51.418Z,101474.88
2018-05-03T10:10:20.499Z,101469.36
2018-05-03T10:12:48.882Z,101484.88
2018-05-03T10:15:17.943Z,101484.81
2018-05-03T10:17:46.264Z,101477.75
2018-05-03T10:20:15.767Z,101478.59
2018-05-03T10:22:44.481Z,101481.57
2018-05-03T10:25:14.269Z,101494.22
2018-05-03T10:27:43.842Z,101489.23
2018-05-03T10:30:12.949Z,101503.06
2018-05-03T10:32:41.218Z,101499.34
2018-05-03T10:35:10.098Z,101501.73
2018-05-03T10:37:38.418Z,101499.16
2018-05-03T10:40:06.723Z,101491.69
2018-05-03T10:42:37.630Z,101495.00
2018-05-03T10:45:05.908Z,101504.61
2018-05-03T10:47:34.609Z,101503.76
2018-05-03T10:50:03.778Z,101513.80
2018-05-03T10:52:32.146Z,101514.62
2018-05-03T10:55:01.903Z,101514.13
2018-05-03T10:57:31.865Z,101515.07
2018-05-03T11:00:01.031Z,101517.64
2018-05-03T11:02:30.103Z,101516.83
2018-05-03T11:04:58.447Z,101519.06
2018-05-03T11:07:26.946Z,101520.33
2018-05-03T11:09:58.044Z,101533.23
2018-05-03T11:12:27.000Z,101536.16
2018-05-03T11:14:55.267Z,101539.56
2018-05-03T11:17:23.579Z,101536.22
2018-05-03T11:19:53.034Z,101529.14
2018-05-03T11:22:22.939Z,101529.55
2018-05-03T11:24:51.611Z,101537.08
2018-05-03T11:27:20.014Z,101548.41
2018-05-03T11:29:48.282Z,101540.02
2018-05-03T11:32:16.548Z,101547.16
2018-05-03T11:34:44.939Z,101550.94
2018-05-03T11:37:13.647Z,101545.91
2018-05-03T11:39:41.931Z,101551.38
2018-05-03T11:42:11.019Z,101555.55
2018-05-03T11:44:39.291Z,101559.74
2018-05-03T11:47:08.275Z,101550.95
2018-05-03T11:49:36.607Z,101568.93
2018-05-03T11:52:05.673Z,101558.50
2018-05-03T11:54:34.312Z,101567.73
2018-05-03T11:57:03.218Z,101577.81
2018-05-03T11:59:31.613Z,101577.75
2018-05-03T12:01:59.890Z,101569.39
2018-05-03T12:04:28.162Z,101572.73
2018-05-03T12:06:56.488Z,101570.66
2018-05-03T12:09:27.662Z,101562.28
2018-05-03T12:11:57.054Z,101563.45
2018-05-03T12:14:26.613Z,101569.30
2018-05-03T12:16:55.251Z,101577.70
2018-05-03T12:19:25.635Z,101571.41
2018-05-03T12:21:54.107Z,101581.91
2018-05-03T12:24:22.458Z,101572.11
2018-05-03T12:26:50.764Z,101574.20
2018-05-03T12:29:19.050Z,101585.30
2018-05-03T12:31:47.366Z,101579.60
2018-05-03T12:34:16.962Z,101588.49
2018-05-03T12:36:46.827Z,101582.28
2018-05-03T12:39:15.128Z,101583.70
2018-05-03T12:41:43.394Z,101587.78
2018-05-03T12:44:12.690Z,101594.05
2018-05-03T12:46:40.971Z,101586.98
2018-05-03T12:49:09.766Z,101579.80
2018-05-03T12:51:39.306Z,101590.14
2018-05-03T12:54:08.370Z,101591.36
2018-05-03T12:56:37.199Z,101592.27
2018-05-03T12:59:06.449Z,101589.55
2018-05-03T13:01:34.724Z,101601.80
2018-05-03T13:04:02.997Z,101603.85
2018-05-03T13:06:31.480Z,101598.64
2018-05-03T13:08:59.763Z,101606.37
2018-05-03T13:11:28.954Z,101610.36
2018-05-03T13:13:57.273Z,101598.53
2018-05-03T13:16:26.442Z,101614.00
2018-05-03T13:18:54.787Z,101597.92
2018-05-03T13:21:23.842Z,101608.62
2018-05-03T13:23:53.207Z,101607.56
2018-05-03T13:26:21.479Z,101600.28
2018-05-03T13:28:50.603Z,101605.98
2018-05-03T13:31:18.889Z,101598.17
2018-05-03T13:33:47.211Z,101599.04
2018-05-03T13:36:17.066Z,101611.36
2018-05-03T13:38:46.154Z,101610.50
2018-05-03T13:41:14.524Z,101598.56
2018-05-03T13:43:43.113Z,101599.74
2018-05-03T13:46:12.384Z,101598.23
2018-05-03T13:48:41.931Z,101588.59
2018-05-03T13:51:10.678Z,101604.20
2018-05-03T13:53:39.736Z,101603.22
2018-05-03T13:56:09.027Z,101606.48
2018-05-03T13:58:37.339Z,101607.42
2018-05-03T14:01:05.624Z,101610.11
2018-05-03T14:03:34.874Z,101606.80
2018-05-03T14:06:03.206Z,101598.32
2018-05-03T14:08:32.251Z,101601.50
2018-05-03T14:11:00.733Z,101602.53
2018-05-03T14:13:30.083Z,101610.20
2018-05-03T14:15:58.424Z,101609.94
2018-05-03T14:18:27.671Z,101620.73
2018-05-03T14:20:56.765Z,101610.30
2018-05-03T14:23:25.724Z,101608.87
2018-05-03T14:25:54.052Z,101616.14
2018-05-03T14:28:23.094Z,101610.52
2018-05-03T14:30:52.415Z,101613.42
2018-05-03T14:33:21.638Z,101606.07
2018-05-03T14:35:50.686Z,101608.78
2018-05-03T14:38:19.004Z,101619.86
2018-05-03T14:40:48.290Z,101617.83
2018-05-03T14:43:17.374Z,101625.89
2018-05-03T14:45:45.711Z,101623.44
2018-05-03T14:48:14.025Z,101623.48
2018-05-03T14:50:42.308Z,101625.78
2018-05-03T14:53:10.929Z,101622.88
2018-05-03T14:55:40.558Z,101627.35
2018-05-03T14:58:08.840Z,101638.92
2018-05-03T15:00:37.417Z,101643.56
2018-05-03T15:03:06.959Z,101638.90
2018-05-03T15:05:35.779Z,101637.13
2018-05-03T15:08:04.074Z,101635.70
2018-05-03T15:10:32.481Z,101637.16
2018-05-03T15:13:01.602Z,101643.52
2018-05-03T15:15:31.430Z,101641.19
2018-05-03T15:17:59.714Z,101643.33
2018-05-03T15:20:27.999Z,101644.80
2018-05-03T15:22:57.393Z,101651.84
2018-05-03T15:25:25.671Z,101646.33
2018-05-03T15:27:55.131Z,101652.45
2018-05-03T15:30:23.440Z,101652.53
2018-05-03T15:32:51.729Z,101654.05
2018-05-03T15:35:20.017Z,101650.63
2018-05-03T15:37:48.786Z,101651.86
2018-05-03T15:40:17.066Z,101659.98
2018-05-03T15:42:46.078Z,101660.16
2018-05-03T15:45:14.862Z,101664.00
2018-05-03T15:47:43.983Z,101673.73
2018-05-03T15:50:12.483Z,101667.68
2018-05-03T15:52:41.113Z,101662.00
2018-05-03T15:55:10.947Z,101660.32
2018-05-03T15:57:39.707Z,101664.27
2018-05-03T16:00:09.607Z,101679.78
2018-05-03T16:02:38.127Z,101673.27
2018-05-03T16:05:07.311Z,101676.44
2018-05-03T16:07:36.822Z,101678.55
2018-05-03T16:10:05.091Z,101678.63
2018-05-03T16:12:35.035Z,101671.73
2018-05-03T16:15:04.442Z,101683.27
2018-05-03T16:17:34.525Z,101683.78
2018-05-03T16:20:03.313Z,101688.62
2018-05-03T16:22:31.603Z,101691.43
2018-05-03T16:25:00.095Z,101691.67
2018-05-03T16:27:28.719Z,101697.97
2018-05-03T16:29:57.774Z,101700.05
2018-05-03T16:32:26.047Z,101703.78
2018-05-03T16:34:54.342Z,101704.48
2018-05-03T16:37:23.078Z,101706.67
2018-05-03T16:39:52.747Z,101701.11
2018-05-03T16:42:21.420Z,101701.14
2018-05-03T16:44:49.696Z,101703.78
2018-05-03T16:47:18.155Z,101707.14
2018-05-03T16:49:47.057Z,101712.65
2018-05-03T16:52:15.464Z,101709.27
2018-05-03T16:54:43.935Z,101717.86
2018-05-03T16:57:12.293Z,101710.03
2018-05-03T16:59:40.603Z,101712.59
2018-05-03T17:02:08.958Z,101713.67
2018-05-03T17:04:37.331Z,101718.41
2018-05-03T17:07:05.792Z,101715.67
2018-05-03T17:09:34.067Z,101719.28
2018-05-03T17:12:03.530Z,101714.28
2018-05-03T17:14:32.577Z,101727.55
2018-05-03T17:17:01.447Z,101730.42
2018-05-03T17:19:32.713Z,101734.61
2018-05-03T17:22:01.426Z,101745.67
2018-05-03T17:24:29.736Z,101747.44
2018-05-03T17:26:58.037Z,101751.95
2018-05-03T17:29:27.092Z,101756.84
2018-05-03T17:31:56.285Z,101750.94
2018-05-03T17:34:24.572Z,101753.45
2018-05-03T17:36:54.387Z,101767.76
2018-05-03T17:39:22.695Z,101769.02
2018-05-03T17:41:51.739Z,101782.03
2018-05-03T17:44:20.805Z,101778.67
2018-05-03T17:46:49.946Z,101783.70
2018-05-03T17:49:18.763Z,101786.19
2018-05-03T17:51:47.691Z,101789.59
2018-05-03T17:54:15.981Z,101796.30
2018-05-03T17:56:44.280Z,101794.96
2018-05-03T17:59:12.703Z,101804.45
2018-05-03T18:01:41.197Z,101806.41
2018-05-03T18:04:11.687Z,101811.28
2018-05-03T18:06:39.975Z,101820.81
2018-05-03T18:09:09.590Z,101822.26
2018-05-03T18:11:38.213Z,101819.08
2018-05-03T18:14:07.051Z,101824.11
2018-05-03T18:16:35.443Z,101827.93
2018-05-03T18:19:04.212Z,101827.47
2018-05-03T18:21:34.143Z,101835.84
2018-05-03T18:24:02.742Z,101833.25
2018-05-03T18:26:31.798Z,101840.83
2018-05-03T18:29:00.089Z,101843.04
2018-05-03T18:31:28.880Z,101847.02
2018-05-03T18:33:57.143Z,101848.36
2018-05-03T18:36:25.819Z,101856.81
2018-05-03T18:38:54.795Z,101862.12
2018-05-03T18:41:23.105Z,101865.75
2018-05-03T18:43:51.589Z,101879.90
2018-05-03T18:46:20.324Z,101882.16
2018-05-03T18:48:49.352Z,101878.85
2018-05-03T18:51:18.162Z,101886.34
2018-05-03T18:53:47.726Z,101896.09
2018-05-03T18:56:16.779Z,101901.54
2018-05-03T18:58:45.883Z,101901.36
2018-05-03T19:01:14.904Z,101902.43
2018-05-03T19:03:44.092Z,101905.52
2018-05-03T19:06:13.766Z,101907.83
2018-05-03T19:08:42.342Z,101911.85
2018-05-03T19:11:11.176Z,101916.03
2018-05-03T19:13:40.623Z,101912.27
2018-05-03T19:16:09.663Z,101923.44
2018-05-03T19:18:39.190Z,101921.87
2018-05-03T19:21:08.073Z,101928.27
2018-05-03T19:23:37.240Z,101928.44
2018-05-03T19:26:05.909Z,101929.73
2018-05-03T19:28:34.570Z,101937.63
2018-05-03T19:31:04.589Z,101936.75
2018-05-03T19:33:34.120Z,101948.58
2018-05-03T19:36:03.995Z,101949.77
2018-05-03T19:38:32.551Z,101954.63
2018-05-03T19:41:00.856Z,101954.06
2018-05-03T19:43:30.040Z,101951.59
2018-05-03T19:45:59.201Z,101949.02
2018-05-03T19:48:27.906Z,101953.23
2018-05-03T19:50:57.669Z,101952.50
2018-05-03T19:53:28.009Z,101954.86
2018-05-03T19:55:56.531Z,101959.78
2018-05-03T19:58:26.659Z,101960.36
2018-05-03T20:00:55.549Z,101958.52
2018-05-03T20:03:23.910Z,101968.00
2018-05-03T20:05:52.231Z,101971.22
2018-05-03T20:08:24.308Z,101967.70
2018-05-03T20:10:53.382Z,101968.05
2018-05-03T20:13:22.493Z,101975.28
2018-05-03T20:15:50.879Z,101980.15
2018-05-03T20:18:20.599Z,101984.28
2018-05-03T20:20:50.350Z,101990.66
2018-05-03T20:23:20.420Z,101996.98
2018-05-03T20:25:48.707Z,101996.17
2018-05-03T20:28:17.918Z,102000.70
2018-05-03T20:30:47.499Z,102000.91
2018-05-03T20:33:15.776Z,102006.22
2018-05-03T20:35:44.353Z,102001.36
2018-05-03T20:38:12.639Z,101997.88
2018-05-03T20:40:41.259Z,101995.13
2018-05-03T20:43:10.722Z,101990.58
2018-05-03T20:45:39.476Z,102000.36
2018-05-03T20:48:08.387Z,102002.80
2018-05-03T20:50:37.520Z,102003.95
2018-05-03T20:53:07.347Z,102002.80
2018-05-03T20:55:37.002Z,102010.66
2018-05-03T20:58:05.286Z,102008.14
2018-05-03T21:00:34.083Z,102001.61
2018-05-03T21:03:03.303Z,102005.95
2018-05-03T21:05:32.008Z,102008.94
2018-05-03T21:08:01.086Z,102003.44
2018-05-03T21:10:30.061Z,102004.62
2018-05-03T21:12:58.406Z,102002.09
2018-05-03T21:15:27.411Z,101996.61
2018-05-03T21:17:56.194Z,102005.05
2018-05-03T21:20:26.224Z,102007.34
2018-05-03T21:22:55.395Z,102008.55
2018-05-03T21:25:23.676Z,102013.84
2018-05-03T21:27:51.940Z,102019.67
2018-05-03T21:30:21.175Z,102023.63
2018-05-03T21:32:49.714Z,102020.91
2018-05-03T21:35:18.986Z,102022.87
2018-05-03T21:37:47.953Z,102025.86
2018-05-03T21:40:17.502Z,102020.52
2018-05-03T21:42:48.092Z,102018.20
2018-05-03T21:45:17.066Z,102018.73
2018-05-03T21:47:45.669Z,102014.92
2018-05-03T21:50:13.950Z,102021.05
2018-05-03T21:52:42.418Z,102021.76
2018-05-03T21:55:10.714Z,102027.09
2018-05-03T21:57:41.848Z,102028.16
2018-05-03T22:00:10.114Z,102030.75
2018-05-03T22:02:39.540Z,102023.49
2018-05-03T22:05:09.434Z,102033.54
2018-05-03T22:07:38.254Z,102035.64
2018-05-03T22:10:06.892Z,102036.67
2018-05-03T22:12:35.298Z,102037.42
2018-05-03T22:15:03.553Z,102044.29
2018-05-03T22:17:32.480Z,102037.82
2018-05-03T22:20:02.000Z,102041.17
2018-05-03T22:22:30.268Z,102044.74
2018-05-03T22:24:58.570Z,102049.28
2018-05-03T22:27:27.739Z,102053.50
2018-05-03T22:29:56.046Z,102055.13
2018-05-03T22:32:24.687Z,102055.88
2018-05-03T22:34:53.150Z,102059.34
2018-05-03T22:37:22.329Z,102047.92
2018-05-03T22:39:51.973Z,102050.76
2018-05-03T22:42:20.265Z,102045.70
2018-05-03T22:44:48.646Z,102045.44
2018-05-03T22:47:16.954Z,102050.70
2018-05-03T22:49:45.878Z,102049.28
2018-05-03T22:52:15.393Z,102048.79
2018-05-03T22:54:44.445Z,102040.41
2018-05-03T22:57:13.063Z,102041.25
2018-05-03T22:59:42.108Z,102047.33
2018-05-03T23:02:10.370Z,102045.52
2018-05-03T23:04:39.118Z,102045.70
2018-05-03T23:07:08.618Z,102047.77
2018-05-03T23:09:36.890Z,102041.84
2018-05-03T23:12:05.170Z,102054.73
2018-05-03T23:14:33.490Z,102052.42
2018-05-03T23:17:02.143Z,102067.52
2018-05-03T23:19:31.329Z,102061.06
2018-05-03T23:21:59.725Z,102074.66
2018-05-03T23:24:29.132Z,102066.36
2018-05-03T23:26:58.277Z,102068.19
2018-05-03T23:29:26.729Z,102074.97
2018-05-03T23:31:55.700Z,102077.63
2018-05-03T23:34:25.250Z,102072.83
2018-05-03T23:36:53.519Z,102074.08
2018-05-03T23:39:21.790Z,102075.83
2018-05-03T23:41:50.343Z,102079.91
2018-05-03T23:44:18.859Z,102080.92
2018-05-03T23:46:48.181Z,102089.92
2018-05-03T23:49:17.191Z,102093.73
2018-05-03T23:51:46.077Z,102099.09
2018-05-03T23:54:14.375Z,102100.05
2018-05-03T23:56:42.716Z,102105.48
2018-05-03T23:59:10.984Z,102099.83
